North Hudson, Wisconsin
Current Conditions -  °F | °C
As of 10:31 AM on Tuesday 21 Oct 2014 (Local Time) from K21D Reporting Station
Clear Clear  
Wind Chill: 41°   Ceiling: Unl
Heat Index: 46°   Visibility: 10mi
Dew Point: 37°   Wind: 12mph
Humidity: 71%   Direction: 100°E
Pressure: 30.22"   Gusts: NA
Location:  44.9743°N, 92.6899°W
Report Text: K21D 211531Z AUTO 10010KT 10SM CLR 08/03 A3022 RMK AO2
Loading
Personal Weather Stations






























Interactive Weather Map New forecast layout! Learn more

10-Day Weather Forecast

Advertisements
Track Severe Weather on mobile